This is the latest recevied weather packets stored in our database for station/object I3RKE-10. If no packets are shown the sender has not sent any weather packets the latest 10 day(s).
| Time | Temp. | Humidity | Pressure | Rain* | Wind** | Luminosity | Snow |
|---|---|---|---|---|---|---|---|
| 1778146039 | 23.33° C | 48% | 1007.2 hPa | - | - | - | - |
| 1778145139 | 21.67° C | 52% | 1007.1 hPa | - | - | - | - |
| 1778144239 | 22.22° C | 51% | 1007.1 hPa | - | - | - | - |
| 1778143339 | 21.67° C | 55% | 1007.2 hPa | - | - | - | - |
| 1778142439 | 21.11° C | 58% | 1007.1 hPa | - | - | - | - |
| 1778141583 | 21.11° C | 59% | 1007 hPa | - | - | - | - |
| 1778141539 | 21.11° C | 59% | 1007 hPa | - | - | - | - |
| 1778140639 | 20.56° C | 60% | 1007.1 hPa | - | - | - | - |
| 1778139738 | 18.33° C | 66% | 1007 hPa | - | - | - | - |
| 1778138838 | 18.89° C | 64% | 1007 hPa | - | - | - | - |
| 1778137938 | 18.33° C | 66% | 1007 hPa | - | - | - | - |
| 1778137038 | 17.78° C | 65% | 1006.8 hPa | - | - | - | - |
| 1778136138 | 17.22° C | 67% | 1006.7 hPa | - | - | - | - |
| 1778135238 | 16.67° C | 69% | 1006.7 hPa | - | - | - | - |
| 1778134338 | 16.67° C | 71% | 1006.8 hPa | - | - | - | - |
| 1778133438 | 16.11° C | 74% | 1006.6 hPa | - | - | - | - |
| 1778132538 | 15.56° C | 74% | 1006.5 hPa | - | - | - | - |
| 1778131722 | 13.89° C | 78% | 1006.3 hPa | - | - | - | - |
| 1778131638 | 13.89° C | 78% | 1006.3 hPa | - | - | - | - |
| 1778130738 | 13.33° C | 80% | 1006 hPa | - | - | - | - |
| 1778129838 | 12.78° C | 82% | 1005.9 hPa | - | - | - | - |
| 1778128937 | 12.22° C | 83% | 1005.8 hPa | - | - | - | - |
| 1778128037 | 12.22° C | 85% | 1005.7 hPa | - | - | - | - |
| 1778127137 | 11.67° C | 86% | 1005.6 hPa | - | - | - | - |
| 1778126237 | 11.67° C | 88% | 1005.3 hPa | - | - | - | - |
* Rain since midnight (hover to see other rain measurements)
** Current wind speed in m/s (hover to see current wind gust speed)